sensor_id;sensor_type;location;lat;lon;timestamp;pressure;altitude;pressure_sealevel;temperature;humidity
65534;BME280;53640;55.838;37.184;2023-04-26T00:00:29;97900.19;;;11.86;49.96
65534;BME280;53640;55.838;37.184;2023-04-26T00:02:57;97895.34;;;11.93;50.45
65534;BME280;53640;55.838;37.184;2023-04-26T00:05:25;97908.03;;;11.88;50.69
65534;BME280;53640;55.838;37.184;2023-04-26T00:07:53;97810.16;;;11.42;50.91
65534;BME280;53640;55.838;37.184;2023-04-26T00:10:19;97964.16;;;12.30;51.34
65534;BME280;53640;55.838;37.184;2023-04-26T00:12:46;97895.56;;;11.82;50.71
65534;BME280;53640;55.838;37.184;2023-04-26T00:15:13;97926.59;;;12.06;51.12
65534;BME280;53640;55.838;37.184;2023-04-26T00:17:40;97952.69;;;12.17;51.17
65534;BME280;53640;55.838;37.184;2023-04-26T00:20:08;97896.88;;;11.79;51.67
65534;BME280;53640;55.838;37.184;2023-04-26T00:22:36;97881.03;;;11.66;51.73
65534;BME280;53640;55.838;37.184;2023-04-26T00:25:03;97877.72;;;11.54;52.05
65534;BME280;53640;55.838;37.184;2023-04-26T00:27:30;97826.81;;;11.18;52.13
65534;BME280;53640;55.838;37.184;2023-04-26T00:29:56;97898.09;;;11.61;52.61
65534;BME280;53640;55.838;37.184;2023-04-26T00:32:23;97878.78;;;11.47;52.81
65534;BME280;53640;55.838;37.184;2023-04-26T00:34:50;97916.25;;;11.61;52.73
65534;BME280;53640;55.838;37.184;2023-04-26T00:37:17;97919.25;;;11.64;52.57
65534;BME280;53640;55.838;37.184;2023-04-26T00:39:44;97901.06;;;11.60;52.63
65534;BME280;53640;55.838;37.184;2023-04-26T00:42:10;97891.78;;;11.50;52.55
65534;BME280;53640;55.838;37.184;2023-04-26T00:44:37;97908.13;;;11.66;52.61
65534;BME280;53640;55.838;37.184;2023-04-26T00:47:05;97880.41;;;11.54;52.63
65534;BME280;53640;55.838;37.184;2023-04-26T00:49:32;97833.63;;;11.26;52.69
65534;BME280;53640;55.838;37.184;2023-04-26T00:51:59;97865.38;;;11.36;53.14
65534;BME280;53640;55.838;37.184;2023-04-26T00:54:26;97900.00;;;11.66;52.74
65534;BME280;53640;55.838;37.184;2023-04-26T00:56:53;97920.38;;;11.68;52.74
65534;BME280;53640;55.838;37.184;2023-04-26T00:59:20;97899.97;;;11.61;53.28
65534;BME280;53640;55.838;37.184;2023-04-26T01:01:46;97880.72;;;11.57;52.98
65534;BME280;53640;55.838;37.184;2023-04-26T01:04:14;97793.09;;;10.99;53.05
65534;BME280;53640;55.838;37.184;2023-04-26T01:06:41;97837.66;;;11.23;52.89
65534;BME280;53640;55.838;37.184;2023-04-26T01:09:08;97797.72;;;11.03;53.04
65534;BME280;53640;55.838;37.184;2023-04-26T01:11:37;97872.56;;;11.52;53.03
65534;BME280;53640;55.838;37.184;2023-04-26T01:14:04;97884.22;;;11.58;52.89
65534;BME280;53640;55.838;37.184;2023-04-26T01:16:31;97889.16;;;11.66;53.19
65534;BME280;53640;55.838;37.184;2023-04-26T01:19:06;97836.03;;;11.22;52.94
65534;BME280;53640;55.838;37.184;2023-04-26T01:21:34;97868.47;;;11.49;53.31
65534;BME280;53640;55.838;37.184;2023-04-26T01:24:01;97876.63;;;11.55;53.66
65534;BME280;53640;55.838;37.184;2023-04-26T01:26:29;97867.66;;;11.49;53.43
65534;BME280;53640;55.838;37.184;2023-04-26T01:28:57;97733.81;;;10.65;53.66
65534;BME280;53640;55.838;37.184;2023-04-26T01:31:24;97886.91;;;11.52;53.85
65534;BME280;53640;55.838;37.184;2023-04-26T01:33:51;97833.66;;;11.31;54.03
65534;BME280;53640;55.838;37.184;2023-04-26T01:36:19;97854.84;;;11.39;53.94
65534;BME280;53640;55.838;37.184;2023-04-26T01:38:46;97851.59;;;11.37;54.10
65534;BME280;53640;55.838;37.184;2023-04-26T01:41:13;97807.16;;;11.01;54.02
65534;BME280;53640;55.838;37.184;2023-04-26T01:43:39;97847.50;;;11.35;54.38
65534;BME280;53640;55.838;37.184;2023-04-26T01:46:06;97807.25;;;11.11;54.38
65534;BME280;53640;55.838;37.184;2023-04-26T01:48:32;97828.09;;;11.11;54.33
65534;BME280;53640;55.838;37.184;2023-04-26T01:51:01;97859.13;;;11.30;54.50
65534;BME280;53640;55.838;37.184;2023-04-26T01:53:27;97742.06;;;10.53;54.43
65534;BME280;53640;55.838;37.184;2023-04-26T01:55:54;97797.31;;;10.90;54.75
65534;BME280;53640;55.838;37.184;2023-04-26T01:58:21;97857.94;;;11.21;54.94
65534;BME280;53640;55.838;37.184;2023-04-26T02:00:49;97810.63;;;10.91;55.16
65534;BME280;53640;55.838;37.184;2023-04-26T02:03:15;97817.63;;;10.87;55.44
65534;BME280;53640;55.838;37.184;2023-04-26T02:05:42;97830.69;;;10.95;55.69
65534;BME280;53640;55.838;37.184;2023-04-26T02:08:08;97801.66;;;10.64;55.42
65534;BME280;53640;55.838;37.184;2023-04-26T02:10:35;97845.28;;;10.94;55.80
65534;BME280;53640;55.838;37.184;2023-04-26T02:13:02;97791.06;;;10.57;56.04
65534;BME280;53640;55.838;37.184;2023-04-26T02:15:29;97816.72;;;10.76;56.09
65534;BME280;53640;55.838;37.184;2023-04-26T02:17:56;97787.59;;;10.62;56.11
65534;BME280;53640;55.838;37.184;2023-04-26T02:20:22;97784.50;;;10.53;56.36
65534;BME280;53640;55.838;37.184;2023-04-26T02:22:49;97745.88;;;10.30;56.28
65534;BME280;53640;55.838;37.184;2023-04-26T02:25:15;97707.03;;;10.10;56.29
65534;BME280;53640;55.838;37.184;2023-04-26T02:27:41;97748.41;;;10.37;56.52
65534;BME280;53640;55.838;37.184;2023-04-26T02:30:08;97828.38;;;10.82;56.93
65534;BME280;53640;55.838;37.184;2023-04-26T02:32:35;97810.72;;;10.74;56.49
65534;BME280;53640;55.838;37.184;2023-04-26T02:35:01;97817.56;;;10.82;56.66
65534;BME280;53640;55.838;37.184;2023-04-26T02:37:31;97713.59;;;10.19;56.75
65534;BME280;53640;55.838;37.184;2023-04-26T02:39:58;97811.06;;;10.83;56.69
65534;BME280;53640;55.838;37.184;2023-04-26T02:42:25;97756.03;;;10.45;56.40
65534;BME280;53640;55.838;37.184;2023-04-26T02:44:51;97782.00;;;10.68;57.22
65534;BME280;53640;55.838;37.184;2023-04-26T02:47:18;97768.34;;;10.58;56.91
65534;BME280;53640;55.838;37.184;2023-04-26T02:49:45;97752.53;;;10.45;57.15
65534;BME280;53640;55.838;37.184;2023-04-26T02:52:12;97766.34;;;10.48;57.33
65534;BME280;53640;55.838;37.184;2023-04-26T02:54:38;97768.56;;;10.51;57.40
65534;BME280;53640;55.838;37.184;2023-04-26T02:57:05;97800.63;;;10.65;57.46
65534;BME280;53640;55.838;37.184;2023-04-26T02:59:33;97762.78;;;10.43;57.74
65534;BME280;53640;55.838;37.184;2023-04-26T03:02:00;97727.69;;;10.21;57.58
65534;BME280;53640;55.838;37.184;2023-04-26T03:04:26;97794.31;;;10.59;58.01
65534;BME280;53640;55.838;37.184;2023-04-26T03:06:54;97783.41;;;10.49;58.20
65534;BME280;53640;55.838;37.184;2023-04-26T03:09:20;97751.56;;;10.29;58.00
65534;BME280;53640;55.838;37.184;2023-04-26T03:11:47;97783.16;;;10.50;58.38
65534;BME280;53640;55.838;37.184;2023-04-26T03:14:14;97780.75;;;10.54;57.98
65534;BME280;53640;55.838;37.184;2023-04-26T03:16:41;97769.06;;;10.48;58.33
65534;BME280;53640;55.838;37.184;2023-04-26T03:19:08;97741.88;;;10.33;58.08
65534;BME280;53640;55.838;37.184;2023-04-26T03:21:36;97719.53;;;10.16;58.07
65534;BME280;53640;55.838;37.184;2023-04-26T03:24:04;97740.94;;;10.22;58.32
65534;BME280;53640;55.838;37.184;2023-04-26T03:26:31;97742.91;;;10.27;58.51
65534;BME280;53640;55.838;37.184;2023-04-26T03:28:58;97764.41;;;10.44;58.69
65534;BME280;53640;55.838;37.184;2023-04-26T03:31:24;97753.81;;;10.37;58.49
65534;BME280;53640;55.838;37.184;2023-04-26T03:33:51;97782.06;;;10.51;58.59
65534;BME280;53640;55.838;37.184;2023-04-26T03:36:17;97759.28;;;10.42;58.75
65534;BME280;53640;55.838;37.184;2023-04-26T03:38:44;97766.84;;;10.45;58.75
65534;BME280;53640;55.838;37.184;2023-04-26T03:41:13;97744.59;;;10.38;58.79
65534;BME280;53640;55.838;37.184;2023-04-26T03:43:39;97660.50;;;9.80;58.48
65534;BME280;53640;55.838;37.184;2023-04-26T03:46:05;97734.38;;;10.40;58.60
65534;BME280;53640;55.838;37.184;2023-04-26T03:48:32;97703.34;;;10.21;58.46
65534;BME280;53640;55.838;37.184;2023-04-26T03:51:00;97751.75;;;10.49;58.71
65534;BME280;53640;55.838;37.184;2023-04-26T03:53:31;97768.28;;;10.53;58.76
65534;BME280;53640;55.838;37.184;2023-04-26T03:55:58;97753.94;;;10.52;58.56
65534;BME280;53640;55.838;37.184;2023-04-26T03:58:25;97737.63;;;10.42;58.79
65534;BME280;53640;55.838;37.184;2023-04-26T04:00:51;97749.00;;;10.44;58.89
65534;BME280;53640;55.838;37.184;2023-04-26T04:03:38;97748.19;;;10.44;58.81
65534;BME280;53640;55.838;37.184;2023-04-26T04:06:05;97714.88;;;10.11;58.87
65534;BME280;53640;55.838;37.184;2023-04-26T04:08:36;97622.81;;;9.64;59.25
65534;BME280;53640;55.838;37.184;2023-04-26T04:11:04;97755.69;;;10.37;59.12
65534;BME280;53640;55.838;37.184;2023-04-26T04:13:33;97613.81;;;9.58;59.00
65534;BME280;53640;55.838;37.184;2023-04-26T04:16:00;97646.06;;;9.70;59.15
65534;BME280;53640;55.838;37.184;2023-04-26T04:18:26;97590.59;;;9.35;59.00
65534;BME280;53640;55.838;37.184;2023-04-26T04:20:53;97756.19;;;10.34;59.41
65534;BME280;53640;55.838;37.184;2023-04-26T04:23:20;97691.28;;;10.01;59.29
65534;BME280;53640;55.838;37.184;2023-04-26T04:25:46;97674.38;;;9.89;59.28
65534;BME280;53640;55.838;37.184;2023-04-26T04:28:15;97652.88;;;9.72;59.30
65534;BME280;53640;55.838;37.184;2023-04-26T04:30:44;97681.75;;;9.94;59.65
65534;BME280;53640;55.838;37.184;2023-04-26T04:33:12;97606.91;;;9.45;59.57
65534;BME280;53640;55.838;37.184;2023-04-26T04:35:42;97680.34;;;9.91;59.85
65534;BME280;53640;55.838;37.184;2023-04-26T04:38:10;97690.69;;;9.99;59.67
65534;BME280;53640;55.838;37.184;2023-04-26T04:40:36;97655.38;;;9.79;59.64
65534;BME280;53640;55.838;37.184;2023-04-26T04:43:03;97709.78;;;10.15;59.79
65534;BME280;53640;55.838;37.184;2023-04-26T04:45:31;97638.28;;;9.73;59.81
65534;BME280;53640;55.838;37.184;2023-04-26T04:48:02;97595.53;;;9.43;59.69
65534;BME280;53640;55.838;37.184;2023-04-26T04:50:40;97601.19;;;9.42;59.72
65534;BME280;53640;55.838;37.184;2023-04-26T04:53:11;97650.94;;;9.68;59.89
65534;BME280;53640;55.838;37.184;2023-04-26T04:55:43;97654.31;;;9.80;60.19
65534;BME280;53640;55.838;37.184;2023-04-26T04:58:15;97616.19;;;9.54;60.37
65534;BME280;53640;55.838;37.184;2023-04-26T05:00:43;97686.69;;;10.02;60.10
65534;BME280;53640;55.838;37.184;2023-04-26T05:03:38;97587.25;;;9.50;60.07
65534;BME280;53640;55.838;37.184;2023-04-26T05:06:08;97701.25;;;10.28;60.12
65534;BME280;53640;55.838;37.184;2023-04-26T05:08:37;97645.25;;;9.96;60.34
65534;BME280;53640;55.838;37.184;2023-04-26T05:11:12;97659.50;;;10.14;60.00
65534;BME280;53640;55.838;37.184;2023-04-26T05:13:42;97666.47;;;10.10;59.98
65534;BME280;53640;55.838;37.184;2023-04-26T05:16:09;97681.25;;;10.29;60.35
65534;BME280;53640;55.838;37.184;2023-04-26T05:18:37;97576.91;;;9.69;60.12
65534;BME280;53640;55.838;37.184;2023-04-26T05:21:04;97615.75;;;9.90;60.19
65534;BME280;53640;55.838;37.184;2023-04-26T05:23:36;97654.69;;;10.21;59.97
65534;BME280;53640;55.838;37.184;2023-04-26T05:26:03;97595.75;;;9.91;59.99
65534;BME280;53640;55.838;37.184;2023-04-26T05:28:49;97613.63;;;9.97;59.75
65534;BME280;53640;55.838;37.184;2023-04-26T05:31:36;97606.41;;;10.02;59.83
65534;BME280;53640;55.838;37.184;2023-04-26T05:34:23;97599.53;;;9.90;59.93
65534;BME280;53640;55.838;37.184;2023-04-26T05:36:54;97632.47;;;10.19;59.88
65534;BME280;53640;55.838;37.184;2023-04-26T05:39:24;97596.09;;;9.99;60.04
65534;BME280;53640;55.838;37.184;2023-04-26T05:42:03;97651.00;;;10.32;60.06
65534;BME280;53640;55.838;37.184;2023-04-26T05:44:31;97583.06;;;9.91;59.71
65534;BME280;53640;55.838;37.184;2023-04-26T05:46:57;97597.22;;;10.03;60.00
65534;BME280;53640;55.838;37.184;2023-04-26T05:49:26;97620.25;;;10.11;59.81
65534;BME280;53640;55.838;37.184;2023-04-26T05:51:53;97664.53;;;10.37;60.16
65534;BME280;53640;55.838;37.184;2023-04-26T05:54:45;97736.34;;;10.82;60.35
65534;BME280;53640;55.838;37.184;2023-04-26T05:57:14;97637.53;;;10.05;60.12
65534;BME280;53640;55.838;37.184;2023-04-26T05:59:41;97672.41;;;10.39;60.43
65534;BME280;53640;55.838;37.184;2023-04-26T06:02:09;97707.44;;;10.55;60.33
65534;BME280;53640;55.838;37.184;2023-04-26T06:04:36;97745.53;;;10.76;60.56
65534;BME280;53640;55.838;37.184;2023-04-26T06:07:10;97626.72;;;10.05;60.85
65534;BME280;53640;55.838;37.184;2023-04-26T06:09:39;97711.31;;;10.65;60.54
65534;BME280;53640;55.838;37.184;2023-04-26T06:12:18;97723.59;;;10.77;60.41
65534;BME280;53640;55.838;37.184;2023-04-26T06:14:46;97733.13;;;10.80;60.42
65534;BME280;53640;55.838;37.184;2023-04-26T06:17:17;97738.84;;;10.89;60.46
65534;BME280;53640;55.838;37.184;2023-04-26T06:19:45;97733.94;;;10.81;60.24
65534;BME280;53640;55.838;37.184;2023-04-26T06:22:15;97652.38;;;10.35;60.32
65534;BME280;53640;55.838;37.184;2023-04-26T06:24:41;97682.00;;;10.57;60.29
65534;BME280;53640;55.838;37.184;2023-04-26T06:27:08;97694.03;;;10.66;60.61
65534;BME280;53640;55.838;37.184;2023-04-26T06:29:41;97743.56;;;11.03;60.27
65534;BME280;53640;55.838;37.184;2023-04-26T06:32:09;97676.72;;;10.67;60.52
65534;BME280;53640;55.838;37.184;2023-04-26T06:34:36;97650.81;;;10.44;60.42
65534;BME280;53640;55.838;37.184;2023-04-26T06:37:04;97738.38;;;11.02;60.45
65534;BME280;53640;55.838;37.184;2023-04-26T06:39:33;97627.16;;;10.29;60.27
65534;BME280;53640;55.838;37.184;2023-04-26T06:42:05;97615.56;;;10.34;60.50
65534;BME280;53640;55.838;37.184;2023-04-26T06:45:31;97696.06;;;10.91;60.47
65534;BME280;53640;55.838;37.184;2023-04-26T06:48:00;97605.22;;;10.25;60.01
65534;BME280;53640;55.838;37.184;2023-04-26T06:50:38;97759.38;;;11.22;60.13
65534;BME280;53640;55.838;37.184;2023-04-26T06:53:10;97703.44;;;10.95;60.18
65534;BME280;53640;55.838;37.184;2023-04-26T06:55:37;97671.91;;;10.74;60.20
65534;BME280;53640;55.838;37.184;2023-04-26T06:58:06;97715.63;;;10.98;60.27
65534;BME280;53640;55.838;37.184;2023-04-26T07:00:33;97729.50;;;11.07;60.09
65534;BME280;53640;55.838;37.184;2023-04-26T07:03:00;97629.47;;;10.47;60.16
65534;BME280;53640;55.838;37.184;2023-04-26T07:05:28;97719.56;;;11.17;60.40
65534;BME280;53640;55.838;37.184;2023-04-26T07:07:54;97711.13;;;11.14;60.12
65534;BME280;53640;55.838;37.184;2023-04-26T07:10:26;97694.25;;;11.01;59.63
65534;BME280;53640;55.838;37.184;2023-04-26T07:12:55;97709.47;;;11.13;59.83
65534;BME280;53640;55.838;37.184;2023-04-26T07:15:22;97734.25;;;11.32;59.85
65534;BME280;53640;55.838;37.184;2023-04-26T07:17:49;97690.22;;;11.04;59.53
65534;BME280;53640;55.838;37.184;2023-04-26T07:20:18;97642.41;;;10.77;59.67
65534;BME280;53640;55.838;37.184;2023-04-26T07:22:48;97713.13;;;11.29;59.78
65534;BME280;53640;55.838;37.184;2023-04-26T07:25:19;97729.06;;;11.25;59.97
65534;BME280;53640;55.838;37.184;2023-04-26T07:27:46;97647.09;;;10.87;59.78
65534;BME280;53640;55.838;37.184;2023-04-26T07:30:13;97693.25;;;11.13;59.30
65534;BME280;53640;55.838;37.184;2023-04-26T07:32:43;97635.38;;;10.76;59.31
65534;BME280;53640;55.838;37.184;2023-04-26T07:35:10;97649.78;;;10.87;59.16
65534;BME280;53640;55.838;37.184;2023-04-26T07:41:48;97717.91;;;11.16;59.64
65534;BME280;53640;55.838;37.184;2023-04-26T07:44:15;97677.41;;;10.89;59.34
65534;BME280;53640;55.838;37.184;2023-04-26T07:46:46;97776.13;;;11.61;59.18
65534;BME280;53640;55.838;37.184;2023-04-26T07:49:16;97651.13;;;10.85;59.31
65534;BME280;53640;55.838;37.184;2023-04-26T07:51:46;97660.28;;;10.78;59.09
65534;BME280;53640;55.838;37.184;2023-04-26T07:54:35;97719.88;;;11.31;59.39
65534;BME280;53640;55.838;37.184;2023-04-26T07:57:34;97649.22;;;10.80;59.24
65534;BME280;53640;55.838;37.184;2023-04-26T08:00:08;97722.59;;;11.31;58.99
65534;BME280;53640;55.838;37.184;2023-04-26T08:02:42;97729.09;;;11.30;58.92
65534;BME280;53640;55.838;37.184;2023-04-26T08:05:09;97694.81;;;11.03;58.45
65534;BME280;53640;55.838;37.184;2023-04-26T08:07:38;97669.47;;;10.77;58.92
65534;BME280;53640;55.838;37.184;2023-04-26T08:10:30;97644.69;;;10.53;58.70
65534;BME280;53640;55.838;37.184;2023-04-26T08:13:10;97679.06;;;10.58;59.01
65534;BME280;53640;55.838;37.184;2023-04-26T08:15:39;97673.88;;;10.57;59.50
65534;BME280;53640;55.838;37.184;2023-04-26T08:18:07;97775.56;;;11.12;59.79
65534;BME280;53640;55.838;37.184;2023-04-26T08:20:35;97761.91;;;10.96;60.08
65534;BME280;53640;55.838;37.184;2023-04-26T08:23:01;97760.31;;;11.00;60.34
65534;BME280;53640;55.838;37.184;2023-04-26T08:25:35;97800.50;;;11.14;60.31
65534;BME280;53640;55.838;37.184;2023-04-26T08:28:04;97732.25;;;10.74;60.52
65534;BME280;53640;55.838;37.184;2023-04-26T08:30:33;97685.38;;;10.37;60.56
65534;BME280;53640;55.838;37.184;2023-04-26T08:33:00;97817.06;;;11.17;60.61
65534;BME280;53640;55.838;37.184;2023-04-26T08:35:28;97780.34;;;10.99;60.46
65534;BME280;53640;55.838;37.184;2023-04-26T08:37:54;97759.63;;;10.83;60.15
65534;BME280;53640;55.838;37.184;2023-04-26T08:40:22;97767.53;;;10.90;60.11
65534;BME280;53640;55.838;37.184;2023-04-26T08:42:50;97798.34;;;11.16;60.34
65534;BME280;53640;55.838;37.184;2023-04-26T08:45:21;97770.34;;;11.00;60.26
65534;BME280;53640;55.838;37.184;2023-04-26T08:48:14;97810.34;;;11.30;60.67
65534;BME280;53640;55.838;37.184;2023-04-26T08:50:43;97811.16;;;11.31;60.13
65534;BME280;53640;55.838;37.184;2023-04-26T08:53:14;97778.00;;;11.13;60.13
65534;BME280;53640;55.838;37.184;2023-04-26T08:55:49;97777.69;;;11.10;59.93
65534;BME280;53640;55.838;37.184;2023-04-26T08:58:18;97785.88;;;11.15;59.91
65534;BME280;53640;55.838;37.184;2023-04-26T09:01:12;97811.47;;;11.34;60.08
65534;BME280;53640;55.838;37.184;2023-04-26T09:03:47;97690.91;;;10.52;59.33
65534;BME280;53640;55.838;37.184;2023-04-26T09:06:17;97691.19;;;10.50;59.43
65534;BME280;53640;55.838;37.184;2023-04-26T09:08:45;97718.72;;;10.74;59.42
65534;BME280;53640;55.838;37.184;2023-04-26T09:11:16;97717.09;;;10.73;59.00
65534;BME280;53640;55.838;37.184;2023-04-26T09:13:45;97757.63;;;11.06;59.48
65534;BME280;53640;55.838;37.184;2023-04-26T09:16:40;97745.97;;;11.00;59.32
65534;BME280;53640;55.838;37.184;2023-04-26T09:19:09;97776.25;;;11.34;59.25
65534;BME280;53640;55.838;37.184;2023-04-26T09:21:44;97769.50;;;11.37;59.25
65534;BME280;53640;55.838;37.184;2023-04-26T09:24:12;97760.88;;;11.50;59.17
65534;BME280;53640;55.838;37.184;2023-04-26T09:26:40;97702.75;;;11.20;58.26
65534;BME280;53640;55.838;37.184;2023-04-26T09:29:12;97821.91;;;12.00;57.97
65534;BME280;53640;55.838;37.184;2023-04-26T09:31:40;97811.34;;;12.14;57.89
65534;BME280;53640;55.838;37.184;2023-04-26T09:34:11;97807.88;;;12.23;57.62
65534;BME280;53640;55.838;37.184;2023-04-26T09:36:54;97810.06;;;12.32;56.97
65534;BME280;53640;55.838;37.184;2023-04-26T09:42:00;97823.69;;;12.67;57.41
65534;BME280;53640;55.838;37.184;2023-04-26T09:44:34;97715.06;;;12.11;56.67
65534;BME280;53640;55.838;37.184;2023-04-26T09:49:58;97826.72;;;12.81;54.91
65534;BME280;53640;55.838;37.184;2023-04-26T09:52:29;97714.50;;;12.09;54.45
65534;BME280;53640;55.838;37.184;2023-04-26T09:55:00;97792.47;;;12.70;54.33
65534;BME280;53640;55.838;37.184;2023-04-26T09:57:44;97749.34;;;12.89;54.27
65534;BME280;53640;55.838;37.184;2023-04-26T10:03:34;97828.97;;;14.75;50.76
65534;BME280;53640;55.838;37.184;2023-04-26T10:06:03;97699.16;;;14.89;50.15
65534;BME280;53640;55.838;37.184;2023-04-26T10:08:32;97697.66;;;15.98;47.44
65534;BME280;53640;55.838;37.184;2023-04-26T10:11:00;97823.69;;;17.38;46.42
65534;BME280;53640;55.838;37.184;2023-04-26T10:13:35;97831.13;;;17.51;45.57
65534;BME280;53640;55.838;37.184;2023-04-26T10:16:03;97781.88;;;17.04;44.73
65534;BME280;53640;55.838;37.184;2023-04-26T10:18:36;97773.84;;;16.75;43.62
65534;BME280;53640;55.838;37.184;2023-04-26T10:21:18;97841.81;;;16.82;42.42
65534;BME280;53640;55.838;37.184;2023-04-26T10:23:49;97809.47;;;16.27;42.69
65534;BME280;53640;55.838;37.184;2023-04-26T10:26:53;97842.44;;;16.12;42.70
65534;BME280;53640;55.838;37.184;2023-04-26T10:29:23;97850.75;;;15.78;43.76
65534;BME280;53640;55.838;37.184;2023-04-26T10:34:33;97834.47;;;15.04;45.30
65534;BME280;53640;55.838;37.184;2023-04-26T10:39:41;97754.91;;;13.74;48.00
65534;BME280;53640;55.838;37.184;2023-04-26T10:42:28;97802.47;;;13.82;49.55
65534;BME280;53640;55.838;37.184;2023-04-26T10:45:27;97871.72;;;14.10;50.49
65534;BME280;53640;55.838;37.184;2023-04-26T10:48:22;97876.03;;;14.21;51.36
65534;BME280;53640;55.838;37.184;2023-04-26T10:53:31;97752.19;;;14.24;50.35
65534;BME280;53640;55.838;37.184;2023-04-26T10:55:59;97793.19;;;15.21;48.61
65534;BME280;53640;55.838;37.184;2023-04-26T10:58:27;97787.81;;;15.69;48.08
65534;BME280;53640;55.838;37.184;2023-04-26T11:01:16;97879.31;;;16.57;47.71
65534;BME280;53640;55.838;37.184;2023-04-26T11:06:24;97850.28;;;16.19;45.75
65534;BME280;53640;55.838;37.184;2023-04-26T11:08:54;97884.72;;;16.15;45.95
65534;BME280;53640;55.838;37.184;2023-04-26T11:11:25;97827.97;;;15.64;45.78
65534;BME280;53640;55.838;37.184;2023-04-26T11:13:55;97836.56;;;15.47;46.02
65534;BME280;53640;55.838;37.184;2023-04-26T11:16:27;97883.66;;;15.86;46.93
65534;BME280;53640;55.838;37.184;2023-04-26T11:18:54;97850.03;;;16.15;46.36
65534;BME280;53640;55.838;37.184;2023-04-26T11:21:24;97804.41;;;15.97;45.73
65534;BME280;53640;55.838;37.184;2023-04-26T11:23:54;97815.22;;;16.07;44.68
65534;BME280;53640;55.838;37.184;2023-04-26T11:26:32;97867.63;;;16.33;44.77
65534;BME280;53640;55.838;37.184;2023-04-26T11:29:06;97869.09;;;16.20;44.67
65534;BME280;53640;55.838;37.184;2023-04-26T11:31:36;97858.25;;;16.15;45.33
65534;BME280;53640;55.838;37.184;2023-04-26T11:34:05;97862.34;;;16.13;46.14
65534;BME280;53640;55.838;37.184;2023-04-26T11:36:35;97880.59;;;16.17;46.28
65534;BME280;53640;55.838;37.184;2023-04-26T11:39:05;97892.19;;;16.33;46.85
65534;BME280;53640;55.838;37.184;2023-04-26T11:41:32;97858.41;;;16.24;46.24
65534;BME280;53640;55.838;37.184;2023-04-26T11:44:00;97849.41;;;16.23;46.79
65534;BME280;53640;55.838;37.184;2023-04-26T11:46:29;97888.84;;;16.36;46.47
65534;BME280;53640;55.838;37.184;2023-04-26T11:48:56;97914.78;;;16.39;45.28
65534;BME280;53640;55.838;37.184;2023-04-26T11:51:23;97909.47;;;16.23;46.31
65534;BME280;53640;55.838;37.184;2023-04-26T11:53:50;97896.06;;;16.03;45.80
65534;BME280;53640;55.838;37.184;2023-04-26T11:56:18;97869.06;;;15.72;45.48
65534;BME280;53640;55.838;37.184;2023-04-26T11:59:05;97925.03;;;15.99;45.90
65534;BME280;53640;55.838;37.184;2023-04-26T12:01:33;97899.31;;;15.76;46.03
65534;BME280;53640;55.838;37.184;2023-04-26T12:04:26;97884.81;;;15.51;45.44
65534;BME280;53640;55.838;37.184;2023-04-26T12:07:03;97792.94;;;14.83;45.22
65534;BME280;53640;55.838;37.184;2023-04-26T12:09:39;97925.13;;;15.59;44.67
65534;BME280;53640;55.838;37.184;2023-04-26T12:12:11;97830.97;;;14.99;44.66
65534;BME280;53640;55.838;37.184;2023-04-26T12:14:39;97855.19;;;15.05;44.06
65534;BME280;53640;55.838;37.184;2023-04-26T12:17:06;97870.38;;;15.17;44.06
65534;BME280;53640;55.838;37.184;2023-04-26T12:22:00;97885.56;;;15.62;43.17
65534;BME280;53640;55.838;37.184;2023-04-26T12:24:34;97779.91;;;15.92;44.92
65534;BME280;53640;55.838;37.184;2023-04-26T12:27:19;97833.59;;;17.20;40.39
65534;BME280;53640;55.838;37.184;2023-04-26T12:29:53;97819.72;;;17.76;44.53
65534;BME280;53640;55.838;37.184;2023-04-26T12:32:22;97800.56;;;17.76;39.38
65534;BME280;53640;55.838;37.184;2023-04-26T12:34:49;97854.97;;;18.11;39.42
65534;BME280;53640;55.838;37.184;2023-04-26T12:37:20;97814.28;;;18.18;39.12
65534;BME280;53640;55.838;37.184;2023-04-26T12:39:57;97843.84;;;19.07;38.44
65534;BME280;53640;55.838;37.184;2023-04-26T12:42:32;97826.72;;;19.33;37.23
65534;BME280;53640;55.838;37.184;2023-04-26T12:45:04;97857.09;;;19.36;36.76
65534;BME280;53640;55.838;37.184;2023-04-26T12:47:32;97871.38;;;19.24;37.04
65534;BME280;53640;55.838;37.184;2023-04-26T12:50:04;97801.59;;;18.58;36.89
65534;BME280;53640;55.838;37.184;2023-04-26T12:53:08;97818.03;;;18.36;37.02
65534;BME280;53640;55.838;37.184;2023-04-26T12:56:01;97824.47;;;18.67;37.53
65534;BME280;53640;55.838;37.184;2023-04-26T12:59:00;97841.16;;;19.61;37.17
65534;BME280;53640;55.838;37.184;2023-04-26T13:02:03;97934.16;;;20.16;36.79
65534;BME280;53640;55.838;37.184;2023-04-26T13:05:20;97876.31;;;19.36;34.86
65534;BME280;53640;55.838;37.184;2023-04-26T13:07:50;97914.16;;;19.26;34.37
65534;BME280;53640;55.838;37.184;2023-04-26T13:10:21;97848.31;;;18.39;34.17
65534;BME280;53640;55.838;37.184;2023-04-26T13:12:49;97874.22;;;18.33;33.93
65534;BME280;53640;55.838;37.184;2023-04-26T13:15:15;97885.78;;;18.16;34.32
65534;BME280;53640;55.838;37.184;2023-04-26T13:17:50;97794.66;;;17.42;33.82
65534;BME280;53640;55.838;37.184;2023-04-26T13:20:47;97869.06;;;17.58;33.80
65534;BME280;53640;55.838;37.184;2023-04-26T13:23:14;97876.63;;;17.47;34.93
65534;BME280;53640;55.838;37.184;2023-04-26T13:25:41;97918.59;;;17.56;34.84
65534;BME280;53640;55.838;37.184;2023-04-26T13:28:07;97901.41;;;17.37;34.94
65534;BME280;53640;55.838;37.184;2023-04-26T13:30:42;97825.47;;;16.77;34.25
65534;BME280;53640;55.838;37.184;2023-04-26T13:33:09;97884.41;;;17.02;34.27
65534;BME280;53640;55.838;37.184;2023-04-26T13:35:36;97836.19;;;16.54;34.54